Inhaltsbereich

METAR / TAF

Die METAR- und TAF-Liste ist aus technischen Gründen (Verfügbarkeit, Update-Zyklen) nicht für ein Meteo-Briefing gedacht. Benutzen Sie stattdessen skybriefing der Skyguide  oder das TAMSI (MeteoSchweiz-eigene Meteo Selfbriefing-Plattform für Firmen aus der Aviatik; Anfragen über das

Kontaktformular

METAR Schweiz

METAR     LFSB 231400Z 16006KT 140V200 9999 FEW020 SCT040 BKN056
               04/02 Q0995 TEMPO 4000 SHRA=
METAR     LSGC 231350Z 22009KT 180V260 9000 -SN BKN025 BKN032 00/M04
               Q0993=
METAR     LSGC 231420Z AUTO 23007KT 190V260 9999 FEW018 BKN021 BKN024
               M00/M03 Q0993=
METAR     LSGG 231350Z AUTO 24011KT 9999 -RA SCT024 SCT028 BKN033
               04/01 Q0997=
METAR     LSGG 231420Z 23012KT 9999 -RA FEW010 BKN020 OVC040 04/01
               Q0996 NOSIG=
METAR     LSGS 231350Z 08003KT 040V120 9999 SCT050 BKN100 06/M04
               Q0997=
METAR     LSGS 231420Z 05004KT 9999 SCT050 BKN100 06/M04 Q0996=
METAR RRA LSMA 231350Z AUTO 02004KT 350V050 9999NDV ////// 04/M01
               Q0996 RMK MIS=
METAR RRA LSMA 231420Z AUTO 05006KT 9999NDV FEW062 SCT075 04/00 Q0996
               RMK=
METAR     LSMD 231350Z NIL=
METAR     LSMD 231420Z NIL=
METAR RRA LSME 231350Z AUTO 35001KT 9999NDV FEW150 04/M01 Q0996 RMK=
METAR RRA LSME 231420Z AUTO 31003KT 280V360 9999NDV FEW066 04/M01
               Q0996 RMK=
METAR RRB LSMM 231350Z AUTO 11004KT 9999NDV FEW088 01/M02 Q0995 RMK=
METAR RRB LSMM 231420Z AUTO 29004KT 240V330 9999NDV BKN084 02/M02
               Q0995 RMK=
METAR RRA LSMP 231350Z AUTO 21006KT 170V240 9999NDV FEW031 BKN049
               BKN073 05/00 Q0995 RMK=
METAR RRA LSMP 231420Z AUTO 24011KT 9999NDV FEW029 BKN045 05/M01
               Q0995 RMK=
METAR     LSZA 231350Z VRB01KT CAVOK 12/M07 Q0995 NOSIG=
METAR     LSZA 231420Z 19004KT 150V250 CAVOK 10/M04 Q0995 NOSIG=
METAR     LSZB 231350Z VRB03KT 9999 FEW060 BKN070 04/M02 Q0996 NOSIG=
METAR     LSZB 231420Z 27003KT 230V320 9999 FEW060 SCT070 04/M02
               Q0995 NOSIG=
METAR     LSZC 231350Z AUTO 06005KT 9999 BKN140 04/M01 Q0996=
METAR     LSZC 231420Z AUTO VRB02KT 9999 FEW070 BKN080 BKN090 04/M01
               Q0996=
METAR     LSZG 231350Z 25008KT 9999 -SHRA FEW025 BKN058 04/01 Q0996
               NOSIG=
METAR     LSZG 231420Z 26005KT 9999 -SHRA FEW025 BKN044 04/01 Q0996
               NOSIG=
METAR     LSZH 231350Z 15004KT 9999 FEW024 04/M02 Q0996 NOSIG=
METAR     LSZH 231420Z VRB03KT 9999 FEW030 03/M01 Q0996 NOSIG=
METAR RRA LSZL 231350Z AUTO 11005KT 070V140 9999NDV NCD 10/M03 Q0995
               RMK=
METAR RRA LSZL 231420Z AUTO 10006KT 050V140 9999NDV NCD 09/M04 Q0995
               RMK=
METAR     LSZR 231350Z 07003KT CAVOK 04/01 Q0997 NOSIG RMK I=
METAR     LSZR 231420Z 10004KT CAVOK 04/01 Q0996 NOSIG RMK J=
METAR     LSZS 231350Z 04007KT CAVOK M05/M12 Q0993 R03/31//95 RMK O
               TL180=
METAR     LSZS 231420Z 35004KT CAVOK M04/M11 Q0993 R03/31//95 RMK P
               TL180=
Aktualisiert am Samstag, 23. Januar 2021, 15:42 Uhr

TAF Schweiz

TAF     LFSB 231100Z 2312/2412 15005KT 9999 FEW020 BKN040 TEMPO
             2314/2324 4000 SHRA SCT030TCU BECMG 2320/2322 24013KT
             PROB40 TEMPO 2322/2404 25016G31KT -SHRASN PROB30 TEMPO
             2404/2408 BKN008=
TAF     LSGC 231125Z 2312/2321 22010G20KT 9999 FEW025 BECMG 2312/2314
             3000 SN OVC008=
TAF     LSGG 231125Z 2312/2418 24010KT 9999 FEW020 SCT050 TX04/2314Z
             TNM00/2406Z TX05/2415Z BECMG 2312/2314 4500 RASN OVC015
             BECMG 2323/2401 VRB02KT 9999 SCT040=
TAF     LSGS 231125Z 2312/2321 VRB02KT 9999 SCT150 BECMG 2314/2316
             4500 SN OVC030=
TAF     LSMA 230925Z 2310/2416 17002KT CAVOK TEMPO 2310/2314 BKN100
             TEMPO 2316/2320 SHRA PROB40 TEMPO 2320/2406 3000 SHRASN
             BKN012 TEMPO 2322/2402 21012G27KT TEMPO 2322/2405 1400
             SHSNRA OVC007 BECMG 2408/2412 NSW PROB30 TEMPO 2412/2416
             CAVOK=
TAF     LSMD 230925Z 2310/2416 15004KT 9999 FEW018 BKN060 TEMPO
             2315/2404 SHRA PROB40 TEMPO 2317/2404 3000 SHRASN BKN012
             TEMPO 2320/2405 26012G28KT 2500 SHSNRA BKN009 BECMG
             2407/2410 NSW PROB30 TEMPO 2412/2416 CAVOK=
TAF     LSME 230925Z 2310/2416 VRB03KT CAVOK TEMPO 2310/2314 BKN100
             TEMPO 2314/2402 SHRA BKN025 PROB40 TEMPO 2316/2402 3000
             SHRASN BKN012 TEMPO 2320/2405 26012G28KT 2500 SHSNRA
             BKN009 BECMG 2407/2410 NSW PROB30 TEMPO 2412/2416 CAVOK=
TAF     LSMM 230925Z 2310/2416 VRB03KT 9999 FEW047 TEMPO 2315/2318
             SHRA PROB40 TEMPO 2316/2404 3000 SHRASN BKN012 PROB40
             TEMPO 2320/2405 0900 SHSN VV003 BECMG 2408/2412 NSW
             PROB30 TEMPO 2412/2416 CAVOK=
TAF     LSMP 230925Z 2310/2416 23007KT 9999 FEW050 BECMG 2312/2314
             24015G25KT 4500 RASN BKN020 BECMG 2400/2403 24005KT
             SCT030=
TAF     LSZA 231125Z 2312/2321 01012KT 9999 BKN120 BECMG 2312/2313
             CAVOK BECMG 2313/2315 01005KT 9999 BKN100=
TAF     LSZB 231125Z 2312/2321 VRB02KT CAVOK BECMG 2312/2313 9999
             BKN070 TEMPO 2313/2321 RA PROB30 TEMPO 2316/2321 4000
             RASN BKN012=
TAF     LSZG 231125Z 2312/2321 22008KT 9999 SCT010 TEMPO 2314/2317
             22012G27KT TEMPO 2314/2318 SHRA TEMPO 2315/2318 4000
             SHRASN BKN014 TEMPO 2318/2321 2500 SHSNRA BKN009=
TAF RRX LSZH 231125Z 2312/2418 12003KT 9999 FEW015 BKN065 TX05/2313Z
             TN01/2405Z TX04/2413Z TEMPO 2314/2320 RA PROB40 TEMPO
             2314/2321 3000 RASN BKN012 TEMPO 2321/2405 25012KT 2000
             SHSNRA BKN012=
TAF     LSZL 231125Z 2312/2321 09006KT CAVOK BECMG 2315/2318 9999
             BKN080 PROB40 TEMPO 2315/2321 SHRA=
TAF     LSZR 231125Z 2312/2321 08004KT CAVOK BECMG 2314/2316 9999
             BKN050 TEMPO 2316/2321 3000 RASN BKN012=
TAF     LSZS 231125Z 2312/2321 06006KT 9999 BKN085 TXM02/2314Z TEMPO
             2312/2316 CAVOK TEMPO 2318/2321 4500 SHSN BKN014=
Aktualisiert am Samstag, 23. Januar 2021, 14:02 Uhr